createdAt,value
2023-01-05T00:01:40.983Z,75.19
2023-01-05T00:04:08.387Z,75.20
2023-01-05T00:06:35.599Z,75.19
2023-01-05T00:09:02.257Z,75.18
2023-01-05T00:11:48.193Z,75.18
2023-01-05T00:14:36.617Z,75.17
2023-01-05T00:17:23.123Z,75.17
2023-01-05T00:20:08.511Z,75.17
2023-01-05T00:22:46.689Z,75.17
2023-01-05T00:25:25.150Z,75.18
2023-01-05T00:27:53.980Z,75.19
2023-01-05T00:30:30.535Z,75.20
2023-01-05T00:32:57.668Z,75.27
2023-01-05T00:35:24.564Z,75.26
2023-01-05T00:37:51.766Z,75.27
2023-01-05T00:40:22.446Z,75.29
2023-01-05T00:42:49.243Z,75.35
2023-01-05T00:45:18.279Z,75.50
2023-01-05T00:47:45.256Z,75.48
2023-01-05T00:50:15.315Z,75.52
2023-01-05T00:52:42.630Z,75.47
2023-01-05T00:55:10.111Z,75.53
2023-01-05T00:57:37.213Z,75.50
2023-01-05T01:00:07.650Z,75.50
2023-01-05T01:02:34.993Z,75.51
2023-01-05T01:05:01.689Z,75.50
2023-01-05T01:07:30.414Z,75.52
2023-01-05T01:09:57.438Z,75.50
2023-01-05T01:12:24.152Z,75.52
2023-01-05T01:14:50.905Z,75.51
2023-01-05T01:17:18.191Z,75.55
2023-01-05T01:19:46.762Z,75.60
2023-01-05T01:22:14.549Z,75.62
2023-01-05T01:24:41.649Z,75.63
2023-01-05T01:27:08.372Z,75.63
2023-01-05T01:29:35.073Z,75.67
2023-01-05T01:32:02.593Z,75.72
2023-01-05T01:34:29.359Z,75.76
2023-01-05T01:36:56.569Z,75.76
2023-01-05T01:39:24.307Z,75.75
2023-01-05T01:41:51.461Z,75.76
2023-01-05T01:44:52.511Z,75.79
2023-01-05T01:47:46.080Z,75.79
2023-01-05T01:50:17.967Z,75.84
2023-01-05T01:52:48.336Z,75.87
2023-01-05T01:55:15.698Z,75.91
2023-01-05T01:57:45.037Z,75.92
2023-01-05T02:00:14.905Z,75.98
2023-01-05T02:02:46.007Z,76.03
2023-01-05T02:05:17.955Z,76.07
2023-01-05T02:07:47.321Z,76.03
2023-01-05T02:10:17.944Z,75.99
2023-01-05T02:13:22.144Z,75.99
2023-01-05T02:16:19.840Z,76.00
2023-01-05T02:19:07.402Z,76.07
2023-01-05T02:21:38.465Z,76.07
2023-01-05T02:24:35.087Z,76.11
2023-01-05T02:27:33.060Z,76.09
2023-01-05T02:30:18.732Z,76.13
2023-01-05T02:33:14.687Z,76.15
2023-01-05T02:36:06.047Z,76.23
2023-01-05T02:38:43.651Z,76.23
2023-01-05T02:41:19.622Z,76.23
2023-01-05T02:43:47.026Z,76.21
2023-01-05T02:46:13.757Z,76.21
2023-01-05T02:48:42.683Z,76.29
2023-01-05T02:51:16.284Z,76.32
2023-01-05T02:53:49.726Z,76.29
2023-01-05T02:56:26.188Z,76.32
2023-01-05T02:58:58.400Z,76.34
2023-01-05T03:01:31.156Z,76.31
2023-01-05T03:04:00.889Z,76.30
2023-01-05T03:06:47.046Z,76.32
2023-01-05T03:09:17.518Z,76.33
2023-01-05T03:12:12.295Z,76.40
2023-01-05T03:14:57.753Z,76.45
2023-01-05T03:17:33.507Z,76.46
2023-01-05T03:20:01.296Z,76.51
2023-01-05T03:22:49.970Z,76.64
2023-01-05T03:25:41.523Z,76.72
2023-01-05T03:28:32.461Z,76.83
2023-01-05T03:31:29.048Z,76.95
2023-01-05T03:34:44.444Z,77.06
2023-01-05T03:37:17.345Z,77.07
2023-01-05T03:39:47.262Z,77.36
2023-01-05T03:42:15.799Z,77.54
2023-01-05T03:44:46.070Z,77.76
2023-01-05T03:47:14.479Z,77.92
2023-01-05T03:49:41.693Z,78.17
2023-01-05T03:52:08.746Z,78.37
2023-01-05T03:54:37.734Z,78.55
2023-01-05T03:57:04.367Z,78.74
2023-01-05T03:59:31.579Z,78.91
2023-01-05T04:01:59.057Z,79.07
2023-01-05T04:04:26.157Z,79.25
2023-01-05T04:06:53.044Z,79.39
2023-01-05T04:09:21.441Z,79.53
2023-01-05T04:11:48.338Z,79.64
2023-01-05T04:14:15.103Z,79.87
2023-01-05T04:16:41.931Z,79.92
2023-01-05T04:19:10.583Z,79.96
2023-01-05T04:21:37.358Z,80.11
2023-01-05T04:24:04.405Z,80.17
2023-01-05T04:26:32.953Z,80.23
2023-01-05T04:28:59.806Z,80.33
2023-01-05T04:31:27.394Z,80.45
2023-01-05T04:33:54.924Z,80.55
2023-01-05T04:36:21.955Z,80.68
2023-01-05T04:38:48.742Z,80.83
2023-01-05T04:41:15.683Z,80.93
2023-01-05T04:43:44.493Z,81.06
2023-01-05T04:46:13.299Z,81.17
2023-01-05T04:48:41.979Z,81.30
2023-01-05T04:51:08.701Z,81.41
2023-01-05T04:53:35.698Z,81.56
2023-01-05T04:56:03.574Z,81.78
2023-01-05T04:58:31.251Z,81.93
2023-01-05T05:00:58.249Z,81.92
2023-01-05T05:03:29.641Z,81.92
2023-01-05T05:06:00.449Z,81.94
2023-01-05T05:08:29.698Z,81.97
2023-01-05T05:10:56.729Z,82.14
2023-01-05T05:13:23.497Z,82.22
2023-01-05T05:15:52.796Z,82.25
2023-01-05T05:18:19.721Z,82.29
2023-01-05T05:20:51.615Z,82.34
2023-01-05T05:23:19.262Z,82.39
2023-01-05T05:25:49.928Z,82.65
2023-01-05T05:28:17.328Z,82.81
2023-01-05T05:30:44.472Z,83.05
2023-01-05T05:33:11.319Z,83.01
2023-01-05T05:35:37.932Z,82.97
2023-01-05T05:38:04.788Z,83.05
2023-01-05T05:40:31.480Z,83.07
2023-01-05T05:42:58.114Z,83.10
2023-01-05T05:45:25.181Z,83.12
2023-01-05T05:47:51.897Z,83.26
2023-01-05T05:50:18.602Z,83.31
2023-01-05T05:52:46.519Z,83.53
2023-01-05T05:55:13.283Z,83.71
2023-01-05T05:57:40.008Z,83.84
2023-01-05T06:00:07.593Z,84.05
2023-01-05T06:02:39.980Z,84.13
2023-01-05T06:05:07.476Z,84.13
2023-01-05T06:07:34.116Z,84.09
2023-01-05T06:10:00.715Z,84.19
2023-01-05T06:12:27.718Z,84.29
2023-01-05T06:14:54.381Z,84.33
2023-01-05T06:17:21.026Z,84.41
2023-01-05T06:19:48.083Z,84.57
2023-01-05T06:22:14.813Z,84.69
2023-01-05T06:24:41.542Z,84.64
2023-01-05T06:27:08.472Z,84.78
2023-01-05T06:29:35.064Z,84.81
2023-01-05T06:32:01.708Z,84.80
2023-01-05T06:34:28.730Z,84.97
2023-01-05T06:37:01.871Z,85.11
2023-01-05T06:39:29.343Z,85.12
2023-01-05T06:41:56.143Z,85.19
2023-01-05T06:44:22.892Z,85.33
2023-01-05T06:46:49.791Z,85.30
2023-01-05T06:49:16.383Z,85.41
2023-01-05T06:51:43.066Z,85.50
2023-01-05T06:54:11.124Z,85.47
2023-01-05T06:56:37.813Z,85.54
2023-01-05T06:59:04.723Z,85.62
2023-01-05T07:01:31.795Z,85.74
2023-01-05T07:03:58.588Z,85.72
2023-01-05T07:06:25.342Z,85.88
2023-01-05T07:08:52.326Z,85.87
2023-01-05T07:11:18.950Z,85.89
2023-01-05T07:13:50.597Z,85.90
2023-01-05T07:16:18.372Z,86.01
2023-01-05T07:18:45.203Z,85.97
2023-01-05T07:21:11.837Z,86.01
2023-01-05T07:23:38.836Z,85.99
2023-01-05T07:26:07.083Z,85.92
2023-01-05T07:28:35.059Z,86.11
2023-01-05T07:31:02.772Z,86.28
2023-01-05T07:33:30.796Z,86.20
2023-01-05T07:36:05.007Z,86.10
2023-01-05T07:38:32.647Z,86.18
2023-01-05T07:41:01.057Z,86.27
2023-01-05T07:43:28.161Z,86.31
2023-01-05T07:46:02.219Z,86.25
2023-01-05T07:48:29.026Z,86.19
2023-01-05T07:51:01.302Z,86.20
2023-01-05T07:53:28.857Z,86.20
2023-01-05T07:56:00.975Z,86.04
2023-01-05T07:58:28.933Z,86.21
2023-01-05T08:00:56.329Z,86.15
2023-01-05T08:03:23.754Z,86.15
2023-01-05T08:05:50.391Z,86.13
2023-01-05T08:08:23.904Z,86.06
2023-01-05T08:10:51.261Z,86.02
2023-01-05T10:38:54.656Z,85.16
2023-01-05T10:41:37.040Z,85.16
2023-01-05T10:44:22.594Z,85.70
2023-01-05T10:46:52.725Z,85.56
2023-01-05T10:49:24.824Z,85.44
2023-01-05T10:51:56.444Z,85.31
2023-01-05T10:54:38.431Z,85.19
2023-01-05T10:57:35.190Z,85.16
2023-01-05T11:00:02.934Z,85.07
2023-01-05T11:02:35.409Z,84.99
2023-01-05T11:05:11.522Z,85.00
2023-01-05T11:07:53.537Z,84.99
2023-01-05T11:10:22.397Z,85.01
2023-01-05T11:13:00.258Z,85.00
2023-01-05T11:15:27.099Z,84.93
2023-01-05T11:17:55.083Z,84.84
2023-01-05T11:20:22.250Z,84.81
2023-01-05T11:22:51.183Z,84.76
2023-01-05T11:25:28.977Z,84.79
2023-01-05T11:28:18.666Z,84.90
2023-01-05T11:31:01.012Z,84.88
2023-01-05T11:33:30.581Z,84.81
2023-01-05T11:35:58.857Z,84.90
2023-01-05T11:38:29.421Z,84.79
2023-01-05T11:40:58.519Z,84.74
2023-01-05T11:43:28.830Z,84.75
2023-01-05T11:46:02.223Z,84.71
2023-01-05T11:48:33.897Z,84.87
2023-01-05T11:51:00.935Z,84.85
2023-01-05T11:53:34.744Z,84.92
2023-01-05T11:56:06.227Z,84.90
2023-01-05T11:58:35.111Z,84.87
2023-01-05T12:01:33.318Z,84.90
2023-01-05T12:04:27.480Z,84.88
2023-01-05T12:07:00.109Z,84.79
2023-01-05T12:09:39.654Z,84.69
2023-01-05T12:12:34.027Z,84.61
2023-01-05T12:15:10.187Z,84.60
2023-01-05T12:18:10.399Z,84.56
2023-01-05T12:20:52.902Z,84.54
2023-01-05T12:23:40.917Z,84.60
2023-01-05T12:26:23.408Z,84.56
2023-01-05T12:35:29.245Z,84.53
2023-01-05T12:38:21.531Z,84.47
2023-01-05T12:41:16.015Z,84.52
2023-01-05T12:43:55.048Z,84.52
2023-01-05T12:46:40.383Z,84.47
2023-01-05T12:49:19.361Z,84.55
2023-01-05T12:51:50.031Z,84.53
2023-01-05T12:54:29.406Z,84.53
2023-01-05T12:57:04.230Z,84.57
2023-01-05T12:59:43.235Z,84.52
2023-01-05T13:02:32.797Z,84.49
2023-01-05T13:05:06.308Z,84.47
2023-01-05T13:07:47.939Z,84.47
2023-01-05T13:10:29.494Z,84.48
2023-01-05T13:13:05.132Z,84.44
2023-01-05T13:15:52.741Z,84.47
2023-01-05T13:18:23.721Z,84.48
2023-01-05T13:20:57.412Z,84.54
2023-01-05T13:23:55.608Z,84.57
2023-01-05T13:26:22.686Z,84.55
2023-01-05T13:28:53.739Z,84.52
2023-01-05T13:31:52.921Z,84.50
2023-01-05T13:34:47.895Z,84.53
2023-01-05T13:37:33.409Z,84.53
2023-01-05T13:40:28.962Z,84.58
2023-01-05T13:43:28.722Z,84.66
2023-01-05T13:46:07.128Z,84.69
2023-01-05T13:49:05.118Z,84.70
2023-01-05T13:51:52.728Z,84.70
2023-01-05T13:54:43.571Z,84.74
2023-01-05T13:57:23.284Z,84.81
2023-01-05T14:00:06.508Z,84.80
2023-01-05T14:02:41.561Z,84.80
2023-01-05T14:05:30.323Z,84.80
2023-01-05T14:08:00.557Z,84.75
2023-01-05T14:10:30.876Z,84.95
2023-01-05T14:12:58.433Z,85.05
2023-01-05T14:15:40.950Z,85.00
2023-01-05T14:18:09.943Z,84.98
2023-01-05T14:20:51.416Z,85.05
2023-01-05T14:23:27.083Z,85.04
2023-01-05T14:25:57.572Z,85.06
2023-01-05T14:28:30.368Z,85.27
2023-01-05T14:31:14.368Z,85.48
2023-01-05T14:33:49.819Z,85.53
2023-01-05T14:36:58.024Z,85.59
2023-01-05T14:39:40.474Z,85.57
2023-01-05T14:42:16.470Z,85.78
2023-01-05T14:44:49.620Z,85.56
2023-01-05T14:47:31.950Z,85.99
2023-01-05T14:50:03.900Z,86.33
2023-01-05T14:52:55.753Z,86.33
2023-01-05T14:55:39.225Z,86.24
2023-01-05T14:58:14.203Z,86.48
2023-01-05T15:00:47.003Z,86.52
2023-01-05T15:03:27.082Z,86.67
2023-01-05T15:06:08.384Z,86.72
2023-01-05T15:09:00.139Z,86.83
2023-01-05T15:11:39.222Z,86.87
2023-01-05T15:14:37.314Z,86.99
2023-01-05T15:17:22.814Z,87.18
2023-01-05T15:20:16.126Z,87.19
2023-01-05T15:23:05.173Z,87.26
2023-01-05T15:25:40.992Z,87.31
2023-01-05T15:28:54.869Z,87.41
2023-01-05T15:31:36.937Z,87.30
2023-01-05T15:34:14.083Z,87.33
2023-01-05T15:36:51.018Z,87.17
2023-01-05T15:39:48.453Z,87.36
2023-01-05T15:42:48.801Z,87.42
2023-01-05T15:45:39.453Z,87.47
2023-01-05T15:48:14.339Z,87.50
2023-01-05T15:50:47.304Z,87.56
2023-01-05T15:53:23.918Z,87.68
2023-01-05T15:55:52.110Z,87.79
2023-01-05T15:58:20.103Z,87.77
2023-01-05T16:01:19.361Z,87.81
2023-01-05T16:03:48.643Z,87.79
2023-01-05T16:06:24.478Z,87.94
2023-01-05T16:08:53.808Z,87.99
2023-01-05T16:11:35.555Z,88.04
2023-01-05T16:14:20.289Z,88.13
2023-01-05T16:16:57.509Z,88.12
2023-01-05T16:19:44.981Z,88.21
2023-01-05T16:22:37.628Z,88.18
2023-01-05T16:25:07.529Z,88.42
2023-01-05T16:27:51.251Z,88.60
2023-01-05T16:30:39.405Z,88.58
2023-01-05T16:33:11.870Z,88.56
2023-01-05T16:35:50.798Z,88.58
2023-01-05T16:38:20.265Z,88.58
2023-01-05T16:40:50.361Z,88.62
2023-01-05T16:43:22.768Z,88.57
2023-01-05T16:45:54.985Z,88.63
2023-01-05T16:48:41.570Z,88.65
2023-01-05T16:51:17.723Z,88.49
2023-01-05T16:53:48.491Z,88.65
2023-01-05T16:56:53.465Z,88.60
2023-01-05T16:59:39.126Z,88.65
2023-01-05T17:02:45.301Z,88.72
2023-01-05T17:05:18.282Z,88.70
2023-01-05T17:07:47.853Z,88.80
2023-01-05T17:10:18.596Z,88.73
2023-01-05T17:12:55.696Z,88.68
2023-01-05T17:15:24.918Z,88.71
2023-01-05T17:17:55.302Z,88.68
2023-01-05T17:20:24.698Z,88.69
2023-01-05T17:22:54.570Z,88.67
2023-01-05T17:25:22.147Z,88.62
2023-01-05T17:27:48.912Z,88.60
2023-01-05T17:30:20.434Z,88.61
2023-01-05T17:32:47.946Z,88.61
2023-01-05T17:35:16.112Z,88.60
2023-01-05T17:37:45.305Z,88.60
2023-01-05T17:40:22.508Z,88.64
2023-01-05T17:42:49.650Z,88.65
2023-01-05T17:45:20.921Z,88.54
2023-01-05T17:47:48.519Z,88.51
2023-01-05T17:50:24.405Z,88.52
2023-01-05T17:52:51.319Z,88.50
2023-01-05T17:55:18.191Z,88.46
2023-01-05T17:57:45.597Z,88.41
2023-01-05T18:00:16.124Z,88.46
2023-01-05T18:02:44.414Z,88.46
2023-01-05T18:05:13.246Z,88.41
2023-01-05T18:07:41.522Z,88.36
2023-01-05T18:10:13.381Z,88.46
2023-01-05T18:15:13.122Z,88.51
2023-01-05T18:17:40.306Z,88.55
2023-01-05T18:20:08.138Z,88.57
2023-01-05T18:22:36.933Z,88.58
2023-01-05T18:27:35.447Z,88.53
2023-01-05T18:30:04.316Z,88.62
2023-01-05T18:35:05.834Z,88.73
2023-01-05T18:37:36.100Z,88.77
2023-01-05T18:40:03.598Z,88.73
2023-01-05T18:42:30.325Z,88.75
2023-01-05T18:44:57.129Z,88.75
2023-01-05T18:47:24.049Z,88.80
2023-01-05T18:49:53.295Z,88.85
2023-01-05T18:52:20.049Z,88.89
2023-01-05T18:54:47.023Z,88.90
2023-01-05T18:57:14.391Z,88.89
2023-01-05T18:59:41.281Z,88.84
2023-01-05T19:02:13.931Z,88.86
2023-01-05T19:04:40.988Z,88.94
2023-01-05T19:07:08.922Z,88.94
2023-01-05T19:09:35.823Z,88.99
2023-01-05T19:12:02.567Z,89.07
2023-01-05T19:14:29.804Z,89.24
2023-01-05T19:16:56.549Z,89.24
2023-01-05T19:19:23.235Z,89.23
2023-01-05T19:21:52.166Z,89.20
2023-01-05T19:24:20.994Z,89.22
2023-01-05T19:26:48.880Z,89.30
2023-01-05T19:29:16.921Z,89.30
2023-01-05T19:31:44.838Z,89.26
2023-01-05T19:34:18.471Z,89.25
2023-01-05T19:36:47.272Z,89.23
2023-01-05T19:39:19.913Z,89.20
2023-01-05T19:41:48.725Z,89.15
2023-01-05T19:44:20.611Z,89.07
2023-01-05T19:46:53.380Z,88.97
2023-01-05T19:49:22.842Z,88.94
2023-01-05T19:51:51.044Z,88.91
2023-01-05T19:54:22.386Z,88.92
2023-01-05T19:56:49.717Z,88.89
2023-01-05T19:59:24.605Z,88.92
2023-01-05T20:01:52.259Z,88.93
2023-01-05T20:04:20.397Z,88.90
2023-01-05T20:06:47.149Z,88.88
2023-01-05T20:09:16.457Z,88.91
2023-01-05T20:11:47.719Z,88.89
2023-01-05T20:14:20.867Z,88.89
2023-01-05T20:16:50.768Z,88.86
2023-01-05T20:19:18.885Z,88.75
2023-01-05T20:21:49.840Z,88.70
2023-01-05T20:24:22.437Z,88.67
2023-01-05T20:26:50.981Z,88.68
2023-01-05T20:29:19.551Z,88.65
2023-01-05T20:31:58.640Z,88.58
2023-01-05T20:34:29.785Z,88.55
2023-01-05T20:36:56.447Z,88.55
2023-01-05T20:39:23.200Z,88.52
2023-01-05T20:41:53.060Z,88.51
2023-01-05T20:44:23.022Z,88.50
2023-01-05T20:46:53.525Z,88.48
2023-01-05T20:49:21.569Z,88.46
2023-01-05T20:51:48.331Z,88.44
2023-01-05T20:54:15.824Z,88.38
2023-01-05T20:56:43.780Z,88.31
2023-01-05T20:59:18.284Z,88.25
2023-01-05T21:01:46.351Z,88.22
2023-01-05T21:04:13.510Z,88.16
2023-01-05T21:06:40.297Z,88.11
2023-01-05T21:09:08.391Z,88.07
2023-01-05T21:11:35.650Z,88.00
2023-01-05T21:14:03.166Z,87.99
2023-01-05T21:16:34.706Z,87.94
2023-01-05T21:19:01.944Z,87.88
2023-01-05T21:21:29.658Z,87.87
2023-01-05T21:23:56.912Z,87.81
2023-01-05T21:26:24.761Z,87.79
2023-01-05T21:28:53.514Z,87.76
2023-01-05T21:31:25.627Z,87.71
2023-01-05T21:33:55.434Z,87.69
2023-01-05T21:36:24.816Z,87.66
2023-01-05T21:39:01.125Z,87.62
2023-01-05T21:41:49.196Z,87.62
2023-01-05T21:44:16.922Z,87.56
2023-01-05T21:46:44.251Z,87.55
2023-01-05T21:49:11.978Z,87.48
2023-01-05T21:51:57.283Z,87.40
2023-01-05T21:54:43.732Z,87.35
2023-01-05T21:57:11.013Z,87.28
2023-01-05T21:59:38.098Z,87.21
2023-01-05T22:02:05.086Z,87.16
2023-01-05T22:04:32.018Z,87.13
2023-01-05T22:06:58.777Z,87.08
2023-01-05T22:09:25.514Z,87.05
2023-01-05T22:11:52.550Z,87.03
2023-01-05T22:14:19.269Z,87.02
2023-01-05T22:16:45.943Z,87.02
2023-01-05T22:19:12.872Z,87.01
2023-01-05T22:21:39.546Z,87.00
2023-01-05T22:24:06.795Z,87.00
2023-01-05T22:26:33.771Z,87.04
2023-01-05T22:29:00.603Z,87.06
2023-01-05T22:31:29.190Z,87.15
2023-01-05T22:33:59.306Z,87.18
2023-01-05T22:36:27.780Z,87.22
2023-01-05T22:38:55.578Z,87.32
2023-01-05T22:41:25.710Z,87.33
2023-01-05T22:43:53.056Z,87.44
2023-01-05T22:46:22.265Z,87.43
2023-01-05T22:48:52.565Z,87.53
2023-01-05T22:51:22.020Z,87.60
2023-01-05T22:53:49.493Z,87.63
2023-01-05T22:56:18.280Z,87.64
2023-01-05T22:58:45.205Z,87.69
2023-01-05T23:01:24.343Z,87.74
2023-01-05T23:03:52.526Z,87.89
2023-01-05T23:06:20.502Z,87.87
2023-01-05T23:08:48.968Z,87.85
2023-01-05T23:11:21.355Z,87.92
2023-01-05T23:13:49.247Z,87.90
2023-01-05T23:16:16.148Z,87.93
2023-01-05T23:18:43.794Z,87.93
2023-01-05T23:21:13.174Z,87.88
2023-01-05T23:23:40.546Z,87.89
2023-01-05T23:26:08.775Z,87.87
2023-01-05T23:28:35.835Z,87.83
2023-01-05T23:31:02.957Z,87.76
2023-01-05T23:33:33.887Z,87.76
2023-01-05T23:36:01.253Z,87.76
2023-01-05T23:38:28.714Z,87.72
2023-01-05T23:40:56.775Z,87.69
2023-01-05T23:43:26.213Z,87.65
2023-01-05T23:46:03.495Z,87.60
2023-01-05T23:48:31.102Z,87.60
2023-01-05T23:50:58.156Z,87.59
2023-01-05T23:53:25.748Z,87.61
2023-01-05T23:56:05.134Z,87.61
2023-01-05T23:58:31.969Z,87.70
